CheckWX is a tool to help pilots better visualize weather data.  It is not intended as a substitute for an official pre-flight weather briefing.

01:07:57 UTC

DXNG METAR
Niamtougou International Airport
Niamtougou, Togo
Current

1 hour ago

DXNG 240000Z 36006KT CAVOK 27/00 Q1013
Observed
Feb-24 @ 00:00 UTC
Wind
  • 360° at 6 KTS
Visibility
10,000+ meters
Flight Rules
VFR
Cloud Levels
  • Clear skies
Temperature
27°C / 81°F
Dewpoint
C / 32°F
Humidity
17%
Altimeter
29.91" Hg
Pressure
1012.92 hPa
Previous

4 hours ago

DXNG 232100Z 32006KT CAVOK 28/02 Q1013
Observed
Feb-23 @ 21:00 UTC
Wind
  • 320° at 6 KTS
Visibility
10,000+ meters
Flight Rules
VFR
Cloud Levels
  • Clear skies
Temperature
28°C / 82°F
Dewpoint
C / 36°F
Humidity
19%
Altimeter
29.91" Hg
Pressure
1012.92 hPa
Previous

7 hours ago

DXNG 231800Z 28003KT CAVOK 33/M07 Q1011
Observed
Feb-23 @ 18:00 UTC
Wind
  • 280° at 3 KTS
Visibility
10,000+ meters
Flight Rules
VFR
Cloud Levels
  • Clear skies
Temperature
33°C / 91°F
Dewpoint
-7°C / 19°F
Humidity
7%
Altimeter
29.85" Hg
Pressure
1010.92 hPa